Fokker F27-0100 from Regional Europe at Frankfurt.
 Regi:F-GNLJ  LARGER
 MSN Year:11344 1991
 Date of picture:2008-07-28 08:44
 Position:07R
 Flight: ARR CDG AF 1518 Paris Charles De Gaulle Airport France
 Logs:
 Metar 28/07/2008 08:20 METAR EDDF 280820Z 09006KT CAVOK 27/14 Q1016 NOSIG=
 Hits: 127 ID: 1319

Debriefing: Photographed movements of Airports in NW-Europe.
The images of our site attendant is in authorisation from Queen of Sky.
Copying of images of this site have been prohibited in which manner without the authorisation of the photographer.
In behalf of the crew :"Thank you visiting us" - Contact
Factsheets Fokker, F27-0100, Regional Europe, made by De Plane! © 2006 - 2022 All rights reserved


.